createdAt,value
2023-01-08T00:01:05.818Z,58024.91
2023-01-08T00:03:33.668Z,58024.91
2023-01-08T00:06:03.024Z,58024.91
2023-01-08T00:08:30.932Z,58024.91
2023-01-08T00:10:59.005Z,58024.91
2023-01-08T00:13:27.070Z,58024.91
2023-01-08T00:15:56.452Z,58024.91
2023-01-08T00:18:24.762Z,58024.91
2023-01-08T00:20:52.634Z,99910.72
2023-01-08T00:23:21.434Z,99910.72
2023-01-08T00:25:49.196Z,58024.91
2023-01-08T00:28:16.994Z,58024.91
2023-01-08T00:30:44.991Z,58024.91
2023-01-08T00:33:14.517Z,58024.91
2023-01-08T00:35:42.555Z,58024.91
2023-01-08T00:38:10.344Z,58024.91
2023-01-08T00:40:40.298Z,58024.91
2023-01-08T00:43:08.432Z,58024.91
2023-01-08T00:45:36.521Z,58024.91
2023-01-08T00:48:04.288Z,58024.91
2023-01-08T00:50:33.402Z,58024.91
2023-01-08T00:53:01.226Z,58024.91
2023-01-08T00:55:29.033Z,58024.91
2023-01-08T00:57:58.092Z,58024.91
2023-01-08T01:00:26.003Z,58024.91
2023-01-08T01:02:53.793Z,58024.91
2023-01-08T01:05:21.583Z,58024.91
2023-01-08T01:07:50.787Z,58024.91
2023-01-08T01:10:18.839Z,58024.91
2023-01-08T01:12:46.611Z,58024.91
2023-01-08T01:15:17.045Z,58024.91
2023-01-08T01:17:46.353Z,99858.13
2023-01-08T01:20:15.963Z,58024.91
2023-01-08T01:22:44.217Z,58024.91
2023-01-08T01:25:13.332Z,58024.91
2023-01-08T01:27:41.123Z,58024.91
2023-01-08T01:30:10.625Z,58024.91
2023-01-08T01:32:38.397Z,58024.91
2023-01-08T01:35:07.205Z,58024.91
2023-01-08T01:37:35.083Z,58024.91
2023-01-08T01:40:03.002Z,58024.91
2023-01-08T01:42:41.317Z,58024.91
2023-01-08T01:45:19.123Z,58024.91
2023-01-08T01:47:50.647Z,58024.91
2023-01-08T01:50:23.914Z,58024.91
2023-01-08T01:52:57.041Z,58024.91
2023-01-08T01:55:27.222Z,58024.91
2023-01-08T01:58:04.541Z,58024.91
2023-01-08T02:00:33.647Z,58024.91
2023-01-08T02:03:02.059Z,58024.91
2023-01-08T02:05:42.025Z,58024.91
2023-01-08T02:08:13.721Z,58024.91
2023-01-08T02:10:49.464Z,58024.91
2023-01-08T02:13:24.039Z,58024.91
2023-01-08T02:15:58.117Z,58024.91
2023-01-08T02:18:31.063Z,58024.91
2023-01-08T02:21:03.664Z,99834.88
2023-01-08T02:23:38.547Z,58024.91
2023-01-08T02:26:13.526Z,58024.91
2023-01-08T02:28:45.959Z,58024.91
2023-01-08T02:31:14.372Z,58024.91
2023-01-08T02:33:42.276Z,58024.91
2023-01-08T02:36:31.256Z,58024.91
2023-01-08T02:39:09.843Z,58024.91
2023-01-08T02:41:52.997Z,58024.91
2023-01-08T02:44:25.482Z,58024.91
2023-01-08T02:46:55.392Z,58024.91
2023-01-08T02:49:29.719Z,58024.91
2023-01-08T02:52:01.296Z,58024.91
2023-01-08T02:54:32.460Z,58024.91
2023-01-08T02:57:06.845Z,58024.91
2023-01-08T02:59:35.722Z,58024.91
2023-01-08T03:02:04.399Z,58024.91
2023-01-08T03:04:38.439Z,58024.91
2023-01-08T03:07:06.199Z,58024.91
2023-01-08T03:09:34.085Z,58024.91
2023-01-08T03:12:07.119Z,58024.91
2023-01-08T03:14:40.247Z,58024.91
2023-01-08T03:17:14.083Z,58024.91
2023-01-08T03:19:45.545Z,58024.91
2023-01-08T03:22:16.824Z,58024.91
2023-01-08T03:24:48.250Z,58024.91
2023-01-08T03:27:19.963Z,58024.91
2023-01-08T03:29:50.228Z,99834.88
2023-01-08T03:32:19.911Z,58024.91
2023-01-08T03:34:49.733Z,58024.91
2023-01-08T03:37:22.228Z,58024.91
2023-01-08T03:39:58.329Z,58024.91
2023-01-08T03:42:29.883Z,58024.91
2023-01-08T03:44:57.606Z,58024.91
2023-01-08T03:47:28.127Z,58024.91
2023-01-08T03:49:58.009Z,58024.91
2023-01-08T03:52:28.036Z,58024.91
2023-01-08T03:54:55.835Z,58024.91
2023-01-08T03:57:24.047Z,58024.91
2023-01-08T03:59:53.176Z,58024.91
2023-01-08T04:02:21.194Z,58024.91
2023-01-08T04:04:49.613Z,58024.91
2023-01-08T04:07:17.461Z,58024.91
2023-01-08T04:09:45.201Z,58024.91
2023-01-08T04:12:12.925Z,58024.91
2023-01-08T04:14:40.914Z,58024.91
2023-01-08T04:17:12.330Z,58024.91
2023-01-08T04:19:40.060Z,58024.91
2023-01-08T04:22:07.950Z,58024.91
2023-01-08T04:24:35.725Z,58024.91
2023-01-08T04:27:03.608Z,58024.91
2023-01-08T04:29:31.427Z,58024.91
2023-01-08T04:31:59.203Z,58024.91
2023-01-08T04:34:28.340Z,58024.91
2023-01-08T04:36:56.109Z,58024.91
2023-01-08T04:39:23.955Z,58024.91
2023-01-08T04:41:51.720Z,58024.91
2023-01-08T04:44:19.467Z,58024.91
2023-01-08T04:46:47.229Z,58024.91
2023-01-08T04:49:15.443Z,58024.91
2023-01-08T04:51:44.696Z,58024.91
2023-01-08T04:54:12.484Z,58024.91
2023-01-08T04:56:40.214Z,58024.91
2023-01-08T04:59:08.058Z,58024.91
2023-01-08T05:01:35.933Z,58024.91
2023-01-08T05:04:05.661Z,58024.91
2023-01-08T05:06:34.040Z,58024.91
2023-01-08T05:09:03.516Z,58024.91
2023-01-08T05:11:31.351Z,58024.91
2023-01-08T05:13:59.125Z,58024.91
2023-01-08T05:16:26.877Z,58024.91
2023-01-08T05:18:54.605Z,58024.91
2023-01-08T05:21:22.386Z,58024.91
2023-01-08T05:23:50.148Z,58024.91
2023-01-08T05:26:19.797Z,58024.91
2023-01-08T05:28:47.605Z,58024.91
2023-01-08T05:31:15.728Z,58024.91
2023-01-08T05:33:43.714Z,58024.91
2023-01-08T05:36:13.708Z,58024.91
2023-01-08T05:38:42.055Z,58024.91
2023-01-08T05:41:10.729Z,58024.91
2023-01-08T05:43:39.864Z,58024.91
2023-01-08T05:46:07.803Z,58024.91
2023-01-08T05:48:37.133Z,58024.91
2023-01-08T05:51:05.511Z,58024.91
2023-01-08T05:53:33.859Z,58024.91
2023-01-08T05:56:03.105Z,58024.91
2023-01-08T05:58:31.039Z,58024.91
2023-01-08T06:01:05.983Z,58024.91
2023-01-08T06:03:35.646Z,58024.91
2023-01-08T06:06:05.216Z,58024.91
2023-01-08T06:08:33.685Z,58024.91
2023-01-08T06:11:01.769Z,58024.91
2023-01-08T06:13:29.838Z,58024.91
2023-01-08T06:16:00.122Z,58024.91
2023-01-08T06:18:31.337Z,58024.91
2023-01-08T06:20:59.076Z,58024.91
2023-01-08T06:23:26.863Z,58024.91
2023-01-08T06:25:54.903Z,58024.91
2023-01-08T06:28:22.888Z,58024.91
2023-01-08T06:30:51.032Z,58024.91
2023-01-08T06:33:21.088Z,58024.91
2023-01-08T06:35:50.520Z,58024.91
2023-01-08T06:38:19.245Z,58024.91
2023-01-08T06:40:47.237Z,58024.91
2023-01-08T06:43:15.265Z,58024.91
2023-01-08T06:45:43.063Z,58024.91
2023-01-08T06:48:10.785Z,58024.91
2023-01-08T06:50:38.543Z,58024.91
2023-01-08T06:53:07.626Z,58024.91
2023-01-08T06:55:35.542Z,58024.91
2023-01-08T06:58:03.269Z,58024.91
2023-01-08T07:00:31.169Z,58024.91
2023-01-08T07:02:58.946Z,58024.91
2023-01-08T07:05:27.056Z,58024.91
2023-01-08T07:07:55.239Z,58024.91
2023-01-08T07:10:24.422Z,58024.91
2023-01-08T07:12:52.178Z,58024.91
2023-01-08T07:15:19.938Z,58024.91
2023-01-08T07:17:47.847Z,58024.91
2023-01-08T07:20:15.857Z,58024.91
2023-01-08T07:22:43.811Z,58024.91
2023-01-08T07:25:11.996Z,58024.91
2023-01-08T07:27:41.153Z,58024.91
2023-01-08T07:30:18.093Z,58024.91
2023-01-08T07:32:54.436Z,58024.91
2023-01-08T07:35:22.238Z,58024.91
2023-01-08T07:37:50.016Z,58024.91
2023-01-08T07:40:17.787Z,58024.91
2023-01-08T07:42:46.957Z,58024.91
2023-01-08T07:45:14.750Z,58024.91
2023-01-08T07:47:42.512Z,58024.91
2023-01-08T07:50:10.818Z,58024.91
2023-01-08T07:52:38.557Z,58024.91
2023-01-08T07:55:06.716Z,58024.91
2023-01-08T07:57:34.483Z,58024.91
2023-01-08T08:00:05.433Z,58024.91
2023-01-08T08:02:34.658Z,58024.91
2023-01-08T08:05:02.944Z,58024.91
2023-01-08T08:07:31.965Z,58024.91
2023-01-08T08:09:59.991Z,58024.91
2023-01-08T08:12:27.896Z,58024.91
2023-01-08T08:14:55.742Z,58024.91
2023-01-08T08:17:26.811Z,58024.91
2023-01-08T08:19:54.684Z,58024.91
2023-01-08T08:22:22.575Z,58024.91
2023-01-08T08:24:50.462Z,58024.91
2023-01-08T08:27:18.266Z,58024.91
2023-01-08T08:29:46.048Z,58024.91
2023-01-08T08:32:13.969Z,58024.91
2023-01-08T08:34:43.159Z,58024.91
2023-01-08T08:37:11.027Z,58024.91
2023-01-08T08:39:38.959Z,58024.91
2023-01-08T08:42:06.760Z,58024.91
2023-01-08T08:44:34.646Z,58024.91
2023-01-08T08:47:02.463Z,58024.91
2023-01-08T08:49:30.204Z,58024.91
2023-01-08T08:51:59.584Z,58024.91
2023-01-08T08:54:27.302Z,58024.91
2023-01-08T08:56:55.082Z,58024.91
2023-01-08T08:59:22.836Z,58024.91
2023-01-08T09:01:50.694Z,58024.91
2023-01-08T09:04:18.468Z,58024.91
2023-01-08T09:06:46.230Z,58024.91
2023-01-08T09:09:15.952Z,58024.91
2023-01-08T09:11:43.800Z,58024.91
2023-01-08T09:14:11.796Z,58024.91
2023-01-08T09:16:39.554Z,58024.91
2023-01-08T09:19:07.483Z,58024.91
2023-01-08T09:21:35.340Z,58024.91
2023-01-08T09:24:03.091Z,58024.91
2023-01-08T09:26:32.258Z,58024.91
2023-01-08T09:29:00.636Z,58024.91
2023-01-08T09:31:28.924Z,58024.91
2023-01-08T09:33:56.677Z,58024.91
2023-01-08T09:36:24.447Z,58024.91
2023-01-08T09:38:52.190Z,58024.91
2023-01-08T09:41:23.773Z,58024.91
2023-01-08T09:43:55.401Z,58024.91
2023-01-08T09:46:27.298Z,58024.91
2023-01-08T09:48:58.609Z,58024.91
2023-01-08T09:51:34.265Z,58024.91
2023-01-08T09:54:02.919Z,58024.91
2023-01-08T09:56:31.136Z,58024.91
2023-01-08T09:59:03.016Z,58024.91
2023-01-08T10:01:32.435Z,58024.91
2023-01-08T10:04:06.318Z,58024.91
2023-01-08T10:06:34.649Z,58024.91
2023-01-08T10:09:02.924Z,58024.91
2023-01-08T10:11:41.943Z,58024.91
2023-01-08T10:14:21.970Z,58024.91
2023-01-08T10:16:54.062Z,58024.91
2023-01-08T10:19:22.757Z,58024.91
2023-01-08T10:21:51.585Z,58024.91
2023-01-08T10:24:31.332Z,58024.91
2023-01-08T10:27:08.512Z,58024.91
2023-01-08T10:29:39.849Z,58024.91
2023-01-08T10:32:12.010Z,58024.91
2023-01-08T10:34:46.993Z,58024.91
2023-01-08T10:37:27.861Z,58024.91
2023-01-08T10:40:01.856Z,58024.91
2023-01-08T10:42:35.051Z,58024.91
2023-01-08T10:45:08.843Z,58024.91
2023-01-08T10:47:38.447Z,58024.91
2023-01-08T10:50:19.716Z,99834.88
2023-01-08T10:52:54.526Z,58024.91
2023-01-08T10:55:27.953Z,58024.91
2023-01-08T10:58:00.602Z,58024.91
2023-01-08T11:00:32.033Z,58024.91
2023-01-08T11:03:02.538Z,58024.91
2023-01-08T11:05:35.291Z,58024.91
2023-01-08T11:08:06.367Z,58024.91
2023-01-08T11:10:36.047Z,58024.91
2023-01-08T11:13:07.115Z,58024.91
2023-01-08T11:15:39.786Z,58024.91
2023-01-08T11:18:21.320Z,58024.91
2023-01-08T11:20:50.101Z,99585.19
2023-01-08T11:23:22.682Z,58024.91
2023-01-08T11:25:57.149Z,58024.91
2023-01-08T11:28:34.509Z,58024.91
2023-01-08T11:31:14.754Z,99580.41
2023-01-08T11:33:45.994Z,58024.91
2023-01-08T11:36:23.560Z,58024.91
2023-01-08T11:38:51.518Z,58024.91
2023-01-08T11:41:45.793Z,58024.91
2023-01-08T11:44:28.922Z,58024.91
2023-01-08T11:47:06.811Z,58024.91
2023-01-08T11:49:51.045Z,58024.91
2023-01-08T11:52:32.134Z,58024.91
2023-01-08T11:55:14.788Z,58024.91
2023-01-08T11:57:57.816Z,58024.91
2023-01-08T12:00:51.815Z,58024.91
2023-01-08T12:03:31.654Z,58024.91
2023-01-08T12:06:10.703Z,99518.59
2023-01-08T12:08:48.370Z,99514.78
2023-01-08T12:11:24.944Z,58024.91
2023-01-08T12:14:19.567Z,58024.91
2023-01-08T12:17:08.198Z,58024.91
2023-01-08T12:19:51.808Z,58024.91
2023-01-08T12:22:31.343Z,58024.91
2023-01-08T12:25:27.356Z,58024.91
2023-01-08T12:28:09.285Z,58024.91
2023-01-08T12:30:47.965Z,58024.91
2023-01-08T12:33:23.919Z,58024.91
2023-01-08T12:35:58.585Z,58024.91
2023-01-08T12:38:31.917Z,58024.91
2023-01-08T12:41:02.761Z,58024.91
2023-01-08T12:43:36.600Z,58024.91
2023-01-08T12:46:06.236Z,58024.91
2023-01-08T12:48:36.757Z,58024.91
2023-01-08T12:51:18.275Z,99492.53
2023-01-08T12:53:56.965Z,99490.38
2023-01-08T12:56:36.597Z,99485.56
2023-01-08T12:59:16.858Z,58024.91
2023-01-08T13:01:50.540Z,58024.91
2023-01-08T13:04:19.560Z,58024.91
2023-01-08T13:06:53.854Z,58024.91
2023-01-08T13:09:25.490Z,58024.91
2023-01-08T13:11:54.951Z,58024.91
2023-01-08T13:14:24.117Z,58024.91
2023-01-08T13:17:04.062Z,58024.91
2023-01-08T13:19:41.602Z,58024.91
2023-01-08T13:22:24.889Z,58024.91
2023-01-08T13:24:53.251Z,58024.91
2023-01-08T13:27:30.486Z,58024.91
2023-01-08T13:30:02.005Z,58024.91
2023-01-08T13:32:45.656Z,58024.91
2023-01-08T13:35:26.015Z,58024.91
2023-01-08T13:38:14.359Z,58024.91
2023-01-08T13:40:56.330Z,58024.91
2023-01-08T13:43:28.186Z,58024.91
2023-01-08T13:46:15.979Z,58024.91
2023-01-08T13:48:51.381Z,58024.91
2023-01-08T13:51:34.319Z,58024.91
2023-01-08T13:54:16.716Z,58024.91
2023-01-08T13:56:47.151Z,58024.91
2023-01-08T13:59:24.784Z,58024.91
2023-01-08T14:01:53.951Z,58024.91
2023-01-08T14:04:22.882Z,58024.91
2023-01-08T14:06:51.047Z,58024.91
2023-01-08T14:09:23.776Z,58024.91
2023-01-08T14:11:55.756Z,58024.91
2023-01-08T14:14:25.581Z,58024.91
2023-01-08T14:16:54.682Z,58024.91
2023-01-08T14:19:24.319Z,58024.91
2023-01-08T14:21:54.317Z,58024.91
2023-01-08T14:24:25.956Z,58024.91
2023-01-08T14:26:54.919Z,58024.91
2023-01-08T14:29:24.770Z,58024.91
2023-01-08T14:31:55.537Z,58024.91
2023-01-08T14:34:24.637Z,58024.91
2023-01-08T14:36:54.421Z,58024.91
2023-01-08T14:39:26.083Z,58024.91
2023-01-08T14:42:13.514Z,58024.91
2023-01-08T14:44:46.930Z,58024.91
2023-01-08T14:47:20.224Z,58024.91
2023-01-08T14:49:52.217Z,99485.56
2023-01-08T14:52:21.208Z,58024.91
2023-01-08T14:54:53.971Z,58024.91
2023-01-08T14:57:24.166Z,58024.91
2023-01-08T14:59:56.198Z,58024.91
2023-01-08T15:02:30.548Z,58024.91
2023-01-08T15:05:16.251Z,58024.91
2023-01-08T15:07:45.436Z,58024.91
2023-01-08T15:10:42.411Z,58024.91
2023-01-08T15:13:24.024Z,58024.91
2023-01-08T15:15:57.952Z,58024.91
2023-01-08T15:18:26.221Z,58024.91
2023-01-08T15:20:55.296Z,58024.91
2023-01-08T15:23:29.997Z,58024.91
2023-01-08T15:25:59.300Z,58024.91
2023-01-08T15:28:27.445Z,58024.91
2023-01-08T15:30:58.164Z,58024.91
2023-01-08T15:33:26.595Z,58024.91
2023-01-08T15:35:54.663Z,58024.91
2023-01-08T15:38:23.818Z,58024.91
2023-01-08T15:40:54.089Z,58024.91
2023-01-08T15:43:22.602Z,58024.91
2023-01-08T15:45:51.517Z,58024.91
2023-01-08T15:48:19.448Z,58024.91
2023-01-08T15:50:47.569Z,58024.91
2023-01-08T15:53:22.234Z,58024.91
2023-01-08T15:55:50.512Z,99342.91
2023-01-08T15:58:18.497Z,99343.31
2023-01-08T16:00:47.851Z,99345.31
2023-01-08T16:03:17.248Z,99343.03
2023-01-08T16:05:45.257Z,99342.53
2023-01-08T16:08:13.175Z,50069.09
2023-01-08T16:10:41.008Z,58024.91
2023-01-08T16:13:11.758Z,58024.91
2023-01-08T16:15:40.528Z,58024.91
2023-01-08T16:18:10.156Z,58024.91
2023-01-08T16:20:39.210Z,58024.91
2023-01-08T16:23:07.305Z,58024.91
2023-01-08T16:25:35.130Z,58024.91
2023-01-08T16:28:03.192Z,58024.91
2023-01-08T16:30:31.062Z,58024.91
2023-01-08T16:32:58.854Z,58024.91
2023-01-08T16:35:28.080Z,58024.91
2023-01-08T16:37:56.491Z,58024.91
2023-01-08T16:40:24.328Z,58024.91
2023-01-08T16:42:52.211Z,58024.91
2023-01-08T16:45:19.991Z,58024.91
2023-01-08T16:47:47.933Z,58024.91
2023-01-08T16:50:16.329Z,58024.91
2023-01-08T16:52:45.588Z,58024.91
2023-01-08T16:55:13.456Z,58024.91
2023-01-08T16:57:43.778Z,58024.91
2023-01-08T17:00:13.149Z,58024.91
2023-01-08T17:02:41.016Z,58024.91
2023-01-08T17:05:09.379Z,99343.09
2023-01-08T17:07:37.273Z,58024.91
2023-01-08T17:10:07.815Z,58024.91
2023-01-08T17:12:37.351Z,58024.91
2023-01-08T17:15:08.530Z,58024.91
2023-01-08T17:17:36.523Z,58024.91
2023-01-08T17:20:05.019Z,58024.91
2023-01-08T17:22:32.801Z,58024.91
2023-01-08T17:25:00.753Z,58024.91
2023-01-08T17:27:29.953Z,58024.91
2023-01-08T17:29:58.344Z,58024.91
2023-01-08T17:32:26.805Z,58024.91
2023-01-08T17:34:54.837Z,58024.91
2023-01-08T17:37:22.835Z,58024.91
2023-01-08T17:39:50.870Z,58024.91
2023-01-08T17:42:28.382Z,58024.91
2023-01-08T17:45:01.316Z,58024.91
2023-01-08T17:47:29.370Z,58024.91
2023-01-08T17:49:58.588Z,58024.91
2023-01-08T17:52:27.249Z,58024.91
2023-01-08T17:54:55.072Z,58024.91
2023-01-08T17:57:22.927Z,99199.28
2023-01-08T17:59:50.711Z,99197.53
2023-01-08T18:02:20.024Z,99203.91
2023-01-08T18:04:48.375Z,99203.13
2023-01-08T18:07:16.392Z,99204.13
2023-01-08T18:09:44.772Z,99209.53
2023-01-08T18:12:12.809Z,99214.19
2023-01-08T18:14:41.467Z,99211.56
2023-01-08T18:17:09.236Z,99204.25
2023-01-08T18:19:38.340Z,99199.84
2023-01-08T18:22:06.169Z,99197.97
2023-01-08T18:24:34.510Z,99191.66
2023-01-08T18:27:02.344Z,99181.69
2023-01-08T18:29:30.464Z,99186.19
2023-01-08T18:31:58.559Z,99183.81
2023-01-08T18:34:26.545Z,99181.72
2023-01-08T18:36:55.713Z,99189.66
2023-01-08T18:39:23.530Z,99188.88
2023-01-08T18:42:09.031Z,99180.19
2023-01-08T18:44:36.760Z,99193.16
2023-01-08T18:47:04.564Z,99181.75
2023-01-08T18:49:32.443Z,99180.28
2023-01-08T18:52:02.000Z,99177.72
2023-01-08T18:54:29.896Z,99174.41
2023-01-08T18:56:57.883Z,99179.84
2023-01-08T18:59:25.785Z,99187.06
2023-01-08T19:01:53.679Z,99184.94
2023-01-08T19:04:21.659Z,99184.34
2023-01-08T19:06:49.871Z,99180.56
2023-01-08T19:09:19.312Z,99181.06
2023-01-08T19:11:47.263Z,99171.25
2023-01-08T19:14:15.370Z,99172.66
2023-01-08T19:16:48.267Z,99160.09
2023-01-08T19:19:16.315Z,99163.25
2023-01-08T19:21:44.165Z,99157.03
2023-01-08T19:24:11.932Z,99152.91
2023-01-08T19:26:41.135Z,99150.59
2023-01-08T19:29:09.097Z,99154.22
2023-01-08T19:31:37.110Z,99147.22
2023-01-08T19:34:05.888Z,99149.50
2023-01-08T19:36:34.407Z,99144.72
2023-01-08T19:39:03.811Z,99146.72
2023-01-08T19:41:49.798Z,99153.47
2023-01-08T19:44:19.021Z,99156.56
2023-01-08T19:46:46.862Z,99139.59
2023-01-08T19:49:14.642Z,99148.63
2023-01-08T19:51:42.495Z,99139.81
2023-01-08T19:54:13.393Z,99130.69
2023-01-08T19:56:41.121Z,99138.41
2023-01-08T19:59:08.915Z,99137.47
2023-01-08T20:01:39.011Z,99134.50
2023-01-08T20:04:06.943Z,99138.16
2023-01-08T20:06:34.945Z,99127.16
2023-01-08T20:09:03.356Z,99138.53
2023-01-08T20:11:31.314Z,99131.16
2023-01-08T20:14:00.472Z,99132.31
2023-01-08T20:16:29.586Z,99135.34
2023-01-08T20:19:02.013Z,99132.16
2023-01-08T20:21:30.159Z,99128.84
2023-01-08T20:23:59.642Z,99120.19
2023-01-08T20:26:28.967Z,99123.03
2023-01-08T20:28:58.799Z,99117.00
2023-01-08T20:31:29.575Z,99111.97
2023-01-08T20:34:00.083Z,99116.28
2023-01-08T20:36:30.279Z,99105.06
2023-01-08T20:38:59.616Z,99104.22
2023-01-08T20:41:28.013Z,99100.06
2023-01-08T20:43:57.103Z,99111.84
2023-01-08T20:46:28.417Z,99102.72
2023-01-08T20:48:59.645Z,99101.69
2023-01-08T20:51:27.697Z,99092.63
2023-01-08T20:53:55.565Z,99086.06
2023-01-08T20:56:23.531Z,99087.03
2023-01-08T20:58:51.469Z,99081.72
2023-01-08T21:01:21.771Z,99076.16
2023-01-08T21:03:51.849Z,99081.38
2023-01-08T21:06:24.303Z,99060.47
2023-01-08T21:08:53.816Z,99068.47
2023-01-08T21:11:22.314Z,99057.53
2023-01-08T21:13:50.886Z,99058.84
2023-01-08T21:16:22.790Z,99067.13
2023-01-08T21:18:51.336Z,99055.19
2023-01-08T21:21:22.944Z,99053.00
2023-01-08T21:23:52.024Z,99053.25
2023-01-08T21:26:20.409Z,99046.66
2023-01-08T21:28:49.743Z,58024.91
2023-01-08T21:31:19.728Z,99047.13
2023-01-08T21:33:48.989Z,99044.94
2023-01-08T21:36:18.406Z,99047.09
2023-01-08T21:38:48.253Z,99031.19
2023-01-08T21:41:32.678Z,99029.84
2023-01-08T21:44:17.741Z,99024.78
2023-01-08T21:46:45.593Z,99024.81
2023-01-08T21:49:13.818Z,99025.00
2023-01-08T21:51:59.922Z,99014.03
2023-01-08T21:54:29.052Z,99002.78
2023-01-08T21:56:56.867Z,99005.97
2023-01-08T21:59:24.695Z,99002.22
2023-01-08T22:01:52.586Z,98991.59
2023-01-08T22:04:20.478Z,98986.63
2023-01-08T22:06:48.242Z,98984.81
2023-01-08T22:09:16.020Z,98983.06
2023-01-08T22:11:45.138Z,98981.88
2023-01-08T22:14:12.869Z,98980.97
2023-01-08T22:16:40.701Z,98971.22
2023-01-08T22:19:08.509Z,98976.22
2023-01-08T22:21:36.501Z,98970.84
2023-01-08T22:24:04.375Z,98968.38
2023-01-08T22:26:33.005Z,98973.56
2023-01-08T22:29:02.159Z,98968.63
2023-01-08T22:31:30.019Z,98947.25
2023-01-08T22:33:58.022Z,98944.56
2023-01-08T22:36:26.657Z,98940.16
2023-01-08T22:38:54.363Z,98938.22
2023-01-08T22:41:25.096Z,98931.59
2023-01-08T22:43:56.854Z,98929.75
2023-01-08T22:46:26.592Z,98926.25
2023-01-08T22:48:54.617Z,98914.13
2023-01-08T22:51:25.766Z,98910.38
2023-01-08T22:53:55.170Z,98910.53
2023-01-08T22:56:22.936Z,98905.44
2023-01-08T22:58:51.005Z,98905.00
2023-01-08T23:01:20.717Z,98902.19
2023-01-08T23:03:51.414Z,98909.94
2023-01-08T23:06:20.327Z,98893.31
2023-01-08T23:08:48.665Z,98897.19
2023-01-08T23:11:19.288Z,98897.72
2023-01-08T23:13:47.633Z,98897.53
2023-01-08T23:16:17.545Z,98888.28
2023-01-08T23:18:45.834Z,98883.88
2023-01-08T23:21:17.331Z,98882.47
2023-01-08T23:23:45.686Z,98870.44
2023-01-08T23:26:16.070Z,98885.22
2023-01-08T23:28:44.111Z,98870.81
2023-01-08T23:31:14.492Z,98875.66
2023-01-08T23:33:42.465Z,98872.16
2023-01-08T23:36:12.333Z,98865.56
2023-01-08T23:38:41.420Z,98857.91
2023-01-08T23:41:09.188Z,98868.13
2023-01-08T23:43:36.849Z,98857.47
2023-01-08T23:46:06.021Z,98851.06
2023-01-08T23:48:34.715Z,98854.44
2023-01-08T23:51:03.043Z,98853.22
2023-01-08T23:53:33.205Z,98840.63
2023-01-08T23:56:02.328Z,98848.09
2023-01-08T23:58:30.119Z,98847.25
